sensor_id;sensor_type;location;lat;lon;timestamp;P1;durP1;ratioP1;P2;durP2;ratioP2
8399;SDS011;4237;47.030;15.396;2024-03-02T00:00:50;61.67;;;42.40;;
8399;SDS011;4237;47.030;15.396;2024-03-02T00:03:19;62.83;;;43.60;;
8399;SDS011;4237;47.030;15.396;2024-03-02T00:05:51;60.80;;;43.73;;
8399;SDS011;4237;47.030;15.396;2024-03-02T00:08:22;63.30;;;43.07;;
8399;SDS011;4237;47.030;15.396;2024-03-02T00:10:51;57.73;;;40.87;;
8399;SDS011;4237;47.030;15.396;2024-03-02T00:13:22;59.50;;;42.10;;
8399;SDS011;4237;47.030;15.396;2024-03-02T00:15:51;62.10;;;42.60;;
8399;SDS011;4237;47.030;15.396;2024-03-02T00:20:56;61.93;;;44.80;;
8399;SDS011;4237;47.030;15.396;2024-03-02T00:23:34;68.30;;;46.50;;
8399;SDS011;4237;47.030;15.396;2024-03-02T00:25:58;68.43;;;44.07;;
8399;SDS011;4237;47.030;15.396;2024-03-02T00:28:34;68.47;;;46.57;;
8399;SDS011;4237;47.030;15.396;2024-03-02T00:36:12;71.40;;;47.50;;
8399;SDS011;4237;47.030;15.396;2024-03-02T00:38:49;75.07;;;46.17;;
8399;SDS011;4237;47.030;15.396;2024-03-02T00:41:30;72.07;;;45.43;;
8399;SDS011;4237;47.030;15.396;2024-03-02T00:44:10;73.87;;;47.23;;
8399;SDS011;4237;47.030;15.396;2024-03-02T00:46:38;74.07;;;46.77;;
8399;SDS011;4237;47.030;15.396;2024-03-02T00:49:18;63.33;;;42.77;;
8399;SDS011;4237;47.030;15.396;2024-03-02T00:51:51;68.33;;;45.10;;
8399;SDS011;4237;47.030;15.396;2024-03-02T00:54:21;70.57;;;45.83;;
8399;SDS011;4237;47.030;15.396;2024-03-02T00:56:51;69.77;;;45.57;;
8399;SDS011;4237;47.030;15.396;2024-03-02T00:59:22;72.73;;;45.93;;
8399;SDS011;4237;47.030;15.396;2024-03-02T01:01:51;74.37;;;47.30;;
8399;SDS011;4237;47.030;15.396;2024-03-02T01:04:20;79.47;;;49.13;;
8399;SDS011;4237;47.030;15.396;2024-03-02T01:06:49;72.60;;;46.63;;
8399;SDS011;4237;47.030;15.396;2024-03-02T01:09:18;74.57;;;47.80;;
8399;SDS011;4237;47.030;15.396;2024-03-02T01:11:46;80.50;;;48.03;;
8399;SDS011;4237;47.030;15.396;2024-03-02T01:14:15;81.80;;;50.10;;
8399;SDS011;4237;47.030;15.396;2024-03-02T01:16:44;81.07;;;48.10;;
8399;SDS011;4237;47.030;15.396;2024-03-02T01:19:12;86.93;;;50.73;;
8399;SDS011;4237;47.030;15.396;2024-03-02T01:21:41;87.33;;;50.27;;
8399;SDS011;4237;47.030;15.396;2024-03-02T01:24:10;83.60;;;49.57;;
8399;SDS011;4237;47.030;15.396;2024-03-02T01:26:40;79.47;;;48.20;;
8399;SDS011;4237;47.030;15.396;2024-03-02T01:29:08;81.00;;;49.00;;
8399;SDS011;4237;47.030;15.396;2024-03-02T01:31:37;71.37;;;45.27;;
8399;SDS011;4237;47.030;15.396;2024-03-02T01:34:07;72.30;;;44.40;;
8399;SDS011;4237;47.030;15.396;2024-03-02T01:36:36;70.20;;;43.07;;
8399;SDS011;4237;47.030;15.396;2024-03-02T01:39:05;71.27;;;42.67;;
8399;SDS011;4237;47.030;15.396;2024-03-02T01:41:35;68.90;;;43.93;;
8399;SDS011;4237;47.030;15.396;2024-03-02T01:44:03;65.07;;;40.90;;
8399;SDS011;4237;47.030;15.396;2024-03-02T01:46:32;65.10;;;41.17;;
8399;SDS011;4237;47.030;15.396;2024-03-02T01:49:01;63.70;;;40.93;;
8399;SDS011;4237;47.030;15.396;2024-03-02T01:51:31;66.07;;;41.00;;
8399;SDS011;4237;47.030;15.396;2024-03-02T01:54:00;61.03;;;39.73;;
8399;SDS011;4237;47.030;15.396;2024-03-02T01:56:28;61.30;;;39.03;;
8399;SDS011;4237;47.030;15.396;2024-03-02T01:58:57;64.60;;;41.43;;
8399;SDS011;4237;47.030;15.396;2024-03-02T02:01:25;61.83;;;40.47;;
8399;SDS011;4237;47.030;15.396;2024-03-02T02:03:54;60.93;;;39.87;;
8399;SDS011;4237;47.030;15.396;2024-03-02T02:06:23;60.10;;;39.97;;
8399;SDS011;4237;47.030;15.396;2024-03-02T02:08:51;60.33;;;38.77;;
8399;SDS011;4237;47.030;15.396;2024-03-02T02:11:20;61.27;;;39.67;;
8399;SDS011;4237;47.030;15.396;2024-03-02T02:13:49;56.20;;;37.00;;
8399;SDS011;4237;47.030;15.396;2024-03-02T02:16:17;60.07;;;38.83;;
8399;SDS011;4237;47.030;15.396;2024-03-02T02:18:46;59.10;;;37.57;;
8399;SDS011;4237;47.030;15.396;2024-03-02T02:21:14;54.17;;;33.90;;
8399;SDS011;4237;47.030;15.396;2024-03-02T02:23:43;59.23;;;36.50;;
8399;SDS011;4237;47.030;15.396;2024-03-02T02:26:13;54.63;;;36.17;;
8399;SDS011;4237;47.030;15.396;2024-03-02T02:28:42;50.67;;;34.17;;
8399;SDS011;4237;47.030;15.396;2024-03-02T02:31:17;56.00;;;36.33;;
8399;SDS011;4237;47.030;15.396;2024-03-02T02:33:42;50.77;;;34.77;;
8399;SDS011;4237;47.030;15.396;2024-03-02T02:36:11;54.53;;;35.50;;
8399;SDS011;4237;47.030;15.396;2024-03-02T02:38:44;55.27;;;35.67;;
8399;SDS011;4237;47.030;15.396;2024-03-02T02:41:11;54.60;;;35.60;;
8399;SDS011;4237;47.030;15.396;2024-03-02T02:43:40;55.67;;;34.70;;
8399;SDS011;4237;47.030;15.396;2024-03-02T02:46:08;53.83;;;35.67;;
8399;SDS011;4237;47.030;15.396;2024-03-02T02:48:37;53.47;;;34.10;;
8399;SDS011;4237;47.030;15.396;2024-03-02T02:51:05;52.57;;;34.70;;
8399;SDS011;4237;47.030;15.396;2024-03-02T02:53:34;51.83;;;34.23;;
8399;SDS011;4237;47.030;15.396;2024-03-02T02:56:02;50.93;;;33.73;;
8399;SDS011;4237;47.030;15.396;2024-03-02T02:58:31;50.50;;;33.17;;
8399;SDS011;4237;47.030;15.396;2024-03-02T03:01:00;53.47;;;34.87;;
8399;SDS011;4237;47.030;15.396;2024-03-02T03:03:28;52.80;;;34.23;;
8399;SDS011;4237;47.030;15.396;2024-03-02T03:05:57;51.33;;;34.50;;
8399;SDS011;4237;47.030;15.396;2024-03-02T03:08:26;50.60;;;33.87;;
8399;SDS011;4237;47.030;15.396;2024-03-02T03:10:54;50.20;;;32.90;;
8399;SDS011;4237;47.030;15.396;2024-03-02T03:13:23;49.33;;;32.27;;
8399;SDS011;4237;47.030;15.396;2024-03-02T03:15:52;49.07;;;32.67;;
8399;SDS011;4237;47.030;15.396;2024-03-02T03:18:20;45.60;;;30.27;;
8399;SDS011;4237;47.030;15.396;2024-03-02T03:20:49;49.53;;;32.47;;
8399;SDS011;4237;47.030;15.396;2024-03-02T03:23:17;46.53;;;31.13;;
8399;SDS011;4237;47.030;15.396;2024-03-02T03:25:47;49.87;;;31.67;;
8399;SDS011;4237;47.030;15.396;2024-03-02T03:28:16;47.13;;;31.80;;
8399;SDS011;4237;47.030;15.396;2024-03-02T03:30:44;46.90;;;29.90;;
8399;SDS011;4237;47.030;15.396;2024-03-02T03:33:13;47.70;;;31.97;;
8399;SDS011;4237;47.030;15.396;2024-03-02T03:35:42;50.33;;;31.10;;
8399;SDS011;4237;47.030;15.396;2024-03-02T03:38:10;45.10;;;31.17;;
8399;SDS011;4237;47.030;15.396;2024-03-02T03:40:39;44.47;;;29.90;;
8399;SDS011;4237;47.030;15.396;2024-03-02T03:43:07;46.93;;;31.03;;
8399;SDS011;4237;47.030;15.396;2024-03-02T03:45:36;45.37;;;30.47;;
8399;SDS011;4237;47.030;15.396;2024-03-02T03:48:04;47.03;;;31.63;;
8399;SDS011;4237;47.030;15.396;2024-03-02T03:50:33;45.17;;;29.13;;
8399;SDS011;4237;47.030;15.396;2024-03-02T03:53:02;43.17;;;29.53;;
8399;SDS011;4237;47.030;15.396;2024-03-02T03:55:30;52.17;;;33.07;;
8399;SDS011;4237;47.030;15.396;2024-03-02T03:57:59;47.67;;;31.17;;
8399;SDS011;4237;47.030;15.396;2024-03-02T04:00:27;49.87;;;33.03;;
8399;SDS011;4237;47.030;15.396;2024-03-02T04:02:56;50.00;;;31.83;;
8399;SDS011;4237;47.030;15.396;2024-03-02T04:05:24;42.83;;;29.63;;
8399;SDS011;4237;47.030;15.396;2024-03-02T04:07:54;46.70;;;30.13;;
8399;SDS011;4237;47.030;15.396;2024-03-02T04:10:22;43.83;;;31.73;;
8399;SDS011;4237;47.030;15.396;2024-03-02T04:12:51;48.60;;;31.60;;
8399;SDS011;4237;47.030;15.396;2024-03-02T04:15:19;43.70;;;29.63;;
8399;SDS011;4237;47.030;15.396;2024-03-02T04:17:49;47.90;;;30.80;;
8399;SDS011;4237;47.030;15.396;2024-03-02T04:20:18;45.93;;;30.30;;
8399;SDS011;4237;47.030;15.396;2024-03-02T04:22:47;48.70;;;31.83;;
8399;SDS011;4237;47.030;15.396;2024-03-02T04:25:15;47.03;;;31.07;;
8399;SDS011;4237;47.030;15.396;2024-03-02T04:27:44;50.33;;;31.07;;
8399;SDS011;4237;47.030;15.396;2024-03-02T04:30:12;48.53;;;30.47;;
8399;SDS011;4237;47.030;15.396;2024-03-02T04:32:42;47.63;;;31.37;;
8399;SDS011;4237;47.030;15.396;2024-03-02T04:35:12;45.17;;;30.63;;
8399;SDS011;4237;47.030;15.396;2024-03-02T04:37:41;48.43;;;31.47;;
8399;SDS011;4237;47.030;15.396;2024-03-02T04:40:09;43.67;;;29.60;;
8399;SDS011;4237;47.030;15.396;2024-03-02T04:42:38;43.80;;;28.47;;
8399;SDS011;4237;47.030;15.396;2024-03-02T04:45:08;43.27;;;28.80;;
8399;SDS011;4237;47.030;15.396;2024-03-02T04:47:36;45.60;;;31.20;;
8399;SDS011;4237;47.030;15.396;2024-03-02T04:50:05;44.70;;;28.93;;
8399;SDS011;4237;47.030;15.396;2024-03-02T04:52:34;45.63;;;29.97;;
8399;SDS011;4237;47.030;15.396;2024-03-02T04:55:03;44.37;;;29.67;;
8399;SDS011;4237;47.030;15.396;2024-03-02T04:57:39;41.40;;;28.87;;
8399;SDS011;4237;47.030;15.396;2024-03-02T05:00:07;40.67;;;27.17;;
8399;SDS011;4237;47.030;15.396;2024-03-02T05:02:36;43.20;;;28.73;;
8399;SDS011;4237;47.030;15.396;2024-03-02T05:05:05;42.23;;;28.00;;
8399;SDS011;4237;47.030;15.396;2024-03-02T05:07:34;37.60;;;26.87;;
8399;SDS011;4237;47.030;15.396;2024-03-02T05:10:02;41.57;;;27.10;;
8399;SDS011;4237;47.030;15.396;2024-03-02T05:12:31;41.00;;;26.80;;
8399;SDS011;4237;47.030;15.396;2024-03-02T05:15:04;40.20;;;27.50;;
8399;SDS011;4237;47.030;15.396;2024-03-02T05:17:34;40.30;;;27.87;;
8399;SDS011;4237;47.030;15.396;2024-03-02T05:20:03;39.97;;;26.63;;
8399;SDS011;4237;47.030;15.396;2024-03-02T05:22:32;39.73;;;26.67;;
8399;SDS011;4237;47.030;15.396;2024-03-02T05:25:01;41.60;;;27.10;;
8399;SDS011;4237;47.030;15.396;2024-03-02T05:27:30;42.23;;;27.57;;
8399;SDS011;4237;47.030;15.396;2024-03-02T05:29:59;38.43;;;24.80;;
8399;SDS011;4237;47.030;15.396;2024-03-02T05:32:28;35.53;;;24.93;;
8399;SDS011;4237;47.030;15.396;2024-03-02T05:34:57;41.60;;;26.37;;
8399;SDS011;4237;47.030;15.396;2024-03-02T05:37:25;39.60;;;25.40;;
8399;SDS011;4237;47.030;15.396;2024-03-02T05:39:54;36.80;;;24.73;;
8399;SDS011;4237;47.030;15.396;2024-03-02T05:42:22;37.53;;;24.07;;
8399;SDS011;4237;47.030;15.396;2024-03-02T05:44:51;40.07;;;25.47;;
8399;SDS011;4237;47.030;15.396;2024-03-02T05:47:20;37.33;;;23.27;;
8399;SDS011;4237;47.030;15.396;2024-03-02T05:49:48;38.37;;;24.63;;
8399;SDS011;4237;47.030;15.396;2024-03-02T05:52:17;39.73;;;25.70;;
8399;SDS011;4237;47.030;15.396;2024-03-02T05:54:45;34.30;;;24.20;;
8399;SDS011;4237;47.030;15.396;2024-03-02T05:57:15;39.27;;;25.73;;
8399;SDS011;4237;47.030;15.396;2024-03-02T05:59:45;38.27;;;24.97;;
8399;SDS011;4237;47.030;15.396;2024-03-02T06:02:14;36.00;;;24.67;;
8399;SDS011;4237;47.030;15.396;2024-03-02T06:04:42;32.93;;;21.70;;
8399;SDS011;4237;47.030;15.396;2024-03-02T06:07:11;31.33;;;21.37;;
8399;SDS011;4237;47.030;15.396;2024-03-02T06:09:40;35.00;;;23.80;;
8399;SDS011;4237;47.030;15.396;2024-03-02T06:12:09;36.83;;;23.57;;
8399;SDS011;4237;47.030;15.396;2024-03-02T06:14:38;38.97;;;24.90;;
8399;SDS011;4237;47.030;15.396;2024-03-02T06:17:06;39.33;;;25.70;;
8399;SDS011;4237;47.030;15.396;2024-03-02T06:19:35;39.93;;;25.77;;
8399;SDS011;4237;47.030;15.396;2024-03-02T06:22:03;39.23;;;25.00;;
8399;SDS011;4237;47.030;15.396;2024-03-02T06:24:32;38.53;;;25.37;;
8399;SDS011;4237;47.030;15.396;2024-03-02T06:27:01;38.40;;;25.27;;
8399;SDS011;4237;47.030;15.396;2024-03-02T06:29:29;40.00;;;26.87;;
8399;SDS011;4237;47.030;15.396;2024-03-02T06:32:02;37.80;;;25.73;;
8399;SDS011;4237;47.030;15.396;2024-03-02T06:34:31;41.07;;;26.23;;
8399;SDS011;4237;47.030;15.396;2024-03-02T06:36:59;35.87;;;24.00;;
8399;SDS011;4237;47.030;15.396;2024-03-02T06:39:28;37.23;;;24.80;;
8399;SDS011;4237;47.030;15.396;2024-03-02T06:41:58;37.67;;;25.03;;
8399;SDS011;4237;47.030;15.396;2024-03-02T06:44:26;36.07;;;25.10;;
8399;SDS011;4237;47.030;15.396;2024-03-02T06:46:55;36.10;;;24.73;;
8399;SDS011;4237;47.030;15.396;2024-03-02T06:49:23;38.53;;;25.33;;
8399;SDS011;4237;47.030;15.396;2024-03-02T06:51:52;37.87;;;25.03;;
8399;SDS011;4237;47.030;15.396;2024-03-02T06:54:20;33.87;;;24.17;;
8399;SDS011;4237;47.030;15.396;2024-03-02T06:56:49;34.33;;;23.33;;
8399;SDS011;4237;47.030;15.396;2024-03-02T06:59:17;33.20;;;23.57;;
8399;SDS011;4237;47.030;15.396;2024-03-02T07:01:46;31.37;;;22.50;;
8399;SDS011;4237;47.030;15.396;2024-03-02T07:04:15;30.97;;;21.83;;
8399;SDS011;4237;47.030;15.396;2024-03-02T07:06:43;29.73;;;20.90;;
8399;SDS011;4237;47.030;15.396;2024-03-02T07:09:12;26.73;;;20.90;;
8399;SDS011;4237;47.030;15.396;2024-03-02T07:11:40;27.20;;;20.07;;
8399;SDS011;4237;47.030;15.396;2024-03-02T07:14:09;26.37;;;19.27;;
8399;SDS011;4237;47.030;15.396;2024-03-02T07:16:38;24.33;;;19.20;;
8399;SDS011;4237;47.030;15.396;2024-03-02T07:19:07;23.50;;;19.13;;
8399;SDS011;4237;47.030;15.396;2024-03-02T07:21:36;24.13;;;18.97;;
8399;SDS011;4237;47.030;15.396;2024-03-02T07:24:04;22.40;;;19.13;;
8399;SDS011;4237;47.030;15.396;2024-03-02T07:26:35;24.17;;;19.70;;
8399;SDS011;4237;47.030;15.396;2024-03-02T07:29:03;22.20;;;18.77;;
8399;SDS011;4237;47.030;15.396;2024-03-02T07:31:32;23.00;;;18.67;;
8399;SDS011;4237;47.030;15.396;2024-03-02T07:34:02;21.33;;;18.17;;
8399;SDS011;4237;47.030;15.396;2024-03-02T07:36:30;21.57;;;18.00;;
8399;SDS011;4237;47.030;15.396;2024-03-02T07:38:59;22.50;;;19.33;;
8399;SDS011;4237;47.030;15.396;2024-03-02T07:41:28;22.47;;;19.07;;
8399;SDS011;4237;47.030;15.396;2024-03-02T07:43:56;22.73;;;18.30;;
8399;SDS011;4237;47.030;15.396;2024-03-02T07:46:25;24.03;;;19.30;;
8399;SDS011;4237;47.030;15.396;2024-03-02T07:48:54;21.47;;;17.60;;
8399;SDS011;4237;47.030;15.396;2024-03-02T07:51:22;22.17;;;19.07;;
8399;SDS011;4237;47.030;15.396;2024-03-02T07:53:51;24.37;;;18.93;;
8399;SDS011;4237;47.030;15.396;2024-03-02T07:56:19;23.00;;;18.83;;
8399;SDS011;4237;47.030;15.396;2024-03-02T07:58:49;23.27;;;18.07;;
8399;SDS011;4237;47.030;15.396;2024-03-02T08:01:17;22.43;;;18.47;;
8399;SDS011;4237;47.030;15.396;2024-03-02T08:03:46;23.33;;;18.47;;
8399;SDS011;4237;47.030;15.396;2024-03-02T08:06:17;20.23;;;18.07;;
8399;SDS011;4237;47.030;15.396;2024-03-02T08:08:48;21.00;;;18.53;;
8399;SDS011;4237;47.030;15.396;2024-03-02T08:11:16;20.60;;;17.40;;
8399;SDS011;4237;47.030;15.396;2024-03-02T08:13:45;20.43;;;17.83;;
8399;SDS011;4237;47.030;15.396;2024-03-02T08:16:17;20.00;;;17.83;;
8399;SDS011;4237;47.030;15.396;2024-03-02T08:18:47;19.87;;;17.70;;
8399;SDS011;4237;47.030;15.396;2024-03-02T08:21:17;19.07;;;16.97;;
8399;SDS011;4237;47.030;15.396;2024-03-02T08:23:46;20.50;;;17.50;;
8399;SDS011;4237;47.030;15.396;2024-03-02T08:26:14;23.93;;;20.03;;
8399;SDS011;4237;47.030;15.396;2024-03-02T08:28:43;21.60;;;18.07;;
8399;SDS011;4237;47.030;15.396;2024-03-02T08:31:12;23.70;;;20.40;;
8399;SDS011;4237;47.030;15.396;2024-03-02T08:33:40;24.67;;;20.23;;
8399;SDS011;4237;47.030;15.396;2024-03-02T08:36:09;23.10;;;20.30;;
8399;SDS011;4237;47.030;15.396;2024-03-02T08:38:38;25.37;;;21.53;;
8399;SDS011;4237;47.030;15.396;2024-03-02T08:41:06;25.80;;;21.47;;
8399;SDS011;4237;47.030;15.396;2024-03-02T08:43:35;23.27;;;20.17;;
8399;SDS011;4237;47.030;15.396;2024-03-02T08:46:04;26.47;;;21.47;;
8399;SDS011;4237;47.030;15.396;2024-03-02T08:48:33;25.03;;;20.13;;
8399;SDS011;4237;47.030;15.396;2024-03-02T08:51:02;22.10;;;18.70;;
8399;SDS011;4237;47.030;15.396;2024-03-02T08:53:32;21.37;;;19.07;;
8399;SDS011;4237;47.030;15.396;2024-03-02T08:56:01;21.33;;;18.73;;
8399;SDS011;4237;47.030;15.396;2024-03-02T08:58:32;24.70;;;20.40;;
8399;SDS011;4237;47.030;15.396;2024-03-02T09:01:00;24.37;;;19.80;;
8399;SDS011;4237;47.030;15.396;2024-03-02T09:03:30;26.53;;;20.53;;
8399;SDS011;4237;47.030;15.396;2024-03-02T09:06:00;23.87;;;19.70;;
8399;SDS011;4237;47.030;15.396;2024-03-02T09:08:29;24.17;;;20.17;;
8399;SDS011;4237;47.030;15.396;2024-03-02T09:10:58;28.90;;;21.47;;
8399;SDS011;4237;47.030;15.396;2024-03-02T09:13:27;24.77;;;21.20;;
8399;SDS011;4237;47.030;15.396;2024-03-02T09:15:56;27.93;;;21.60;;
8399;SDS011;4237;47.030;15.396;2024-03-02T09:18:24;26.93;;;22.23;;
8399;SDS011;4237;47.030;15.396;2024-03-02T09:20:53;26.07;;;21.37;;
8399;SDS011;4237;47.030;15.396;2024-03-02T09:23:21;25.53;;;20.93;;
8399;SDS011;4237;47.030;15.396;2024-03-02T09:25:50;27.10;;;20.43;;
8399;SDS011;4237;47.030;15.396;2024-03-02T09:28:19;24.63;;;19.97;;
8399;SDS011;4237;47.030;15.396;2024-03-02T09:30:48;24.23;;;19.87;;
8399;SDS011;4237;47.030;15.396;2024-03-02T09:33:16;25.00;;;20.37;;
8399;SDS011;4237;47.030;15.396;2024-03-02T09:35:45;22.13;;;17.73;;
8399;SDS011;4237;47.030;15.396;2024-03-02T09:38:15;20.10;;;17.10;;
8399;SDS011;4237;47.030;15.396;2024-03-02T09:40:44;20.27;;;16.70;;
8399;SDS011;4237;47.030;15.396;2024-03-02T09:43:12;20.23;;;16.83;;
8399;SDS011;4237;47.030;15.396;2024-03-02T09:45:41;18.57;;;16.60;;
8399;SDS011;4237;47.030;15.396;2024-03-02T09:48:10;19.33;;;16.17;;
8399;SDS011;4237;47.030;15.396;2024-03-02T09:50:38;19.03;;;16.27;;
8399;SDS011;4237;47.030;15.396;2024-03-02T09:53:07;18.43;;;16.43;;
8399;SDS011;4237;47.030;15.396;2024-03-02T09:55:37;19.83;;;16.60;;
8399;SDS011;4237;47.030;15.396;2024-03-02T09:58:07;19.50;;;16.80;;
8399;SDS011;4237;47.030;15.396;2024-03-02T10:00:36;19.80;;;16.60;;
8399;SDS011;4237;47.030;15.396;2024-03-02T10:03:05;19.37;;;17.27;;
8399;SDS011;4237;47.030;15.396;2024-03-02T10:05:35;19.67;;;17.67;;
8399;SDS011;4237;47.030;15.396;2024-03-02T10:08:03;21.87;;;17.37;;
8399;SDS011;4237;47.030;15.396;2024-03-02T10:10:36;21.20;;;16.17;;
8399;SDS011;4237;47.030;15.396;2024-03-02T10:13:10;19.40;;;15.90;;
8399;SDS011;4237;47.030;15.396;2024-03-02T10:15:40;18.77;;;16.43;;
8399;SDS011;4237;47.030;15.396;2024-03-02T10:18:10;20.60;;;15.97;;
8399;SDS011;4237;47.030;15.396;2024-03-02T10:20:42;17.23;;;15.40;;
8399;SDS011;4237;47.030;15.396;2024-03-02T10:23:13;18.03;;;15.50;;
8399;SDS011;4237;47.030;15.396;2024-03-02T10:25:44;21.17;;;17.30;;
8399;SDS011;4237;47.030;15.396;2024-03-02T10:28:12;18.57;;;16.30;;
8399;SDS011;4237;47.030;15.396;2024-03-02T10:30:42;18.50;;;16.10;;
8399;SDS011;4237;47.030;15.396;2024-03-02T10:33:12;17.93;;;15.93;;
8399;SDS011;4237;47.030;15.396;2024-03-02T10:35:41;17.10;;;15.30;;
8399;SDS011;4237;47.030;15.396;2024-03-02T10:38:11;17.23;;;15.00;;
8399;SDS011;4237;47.030;15.396;2024-03-02T10:40:40;17.20;;;15.40;;
8399;SDS011;4237;47.030;15.396;2024-03-02T10:43:10;14.47;;;12.97;;
8399;SDS011;4237;47.030;15.396;2024-03-02T10:45:40;15.27;;;13.50;;
8399;SDS011;4237;47.030;15.396;2024-03-02T10:48:09;15.30;;;12.83;;
8399;SDS011;4237;47.030;15.396;2024-03-02T10:50:38;14.87;;;12.80;;
8399;SDS011;4237;47.030;15.396;2024-03-02T10:53:07;15.97;;;14.13;;
8399;SDS011;4237;47.030;15.396;2024-03-02T10:55:36;14.50;;;13.03;;
8399;SDS011;4237;47.030;15.396;2024-03-02T10:58:05;14.97;;;13.20;;
8399;SDS011;4237;47.030;15.396;2024-03-02T11:00:36;14.33;;;12.90;;
8399;SDS011;4237;47.030;15.396;2024-03-02T11:03:07;15.00;;;13.50;;
8399;SDS011;4237;47.030;15.396;2024-03-02T11:05:36;15.77;;;13.63;;
8399;SDS011;4237;47.030;15.396;2024-03-02T11:08:07;16.10;;;14.33;;
8399;SDS011;4237;47.030;15.396;2024-03-02T11:10:39;16.73;;;12.97;;
8399;SDS011;4237;47.030;15.396;2024-03-02T11:13:15;14.80;;;12.93;;
8399;SDS011;4237;47.030;15.396;2024-03-02T11:15:44;15.20;;;12.83;;
8399;SDS011;4237;47.030;15.396;2024-03-02T11:18:13;17.30;;;12.90;;
8399;SDS011;4237;47.030;15.396;2024-03-02T11:20:42;14.20;;;11.93;;
8399;SDS011;4237;47.030;15.396;2024-03-02T11:23:11;14.57;;;12.33;;
8399;SDS011;4237;47.030;15.396;2024-03-02T11:25:40;13.20;;;11.80;;
8399;SDS011;4237;47.030;15.396;2024-03-02T11:28:09;16.57;;;13.23;;
8399;SDS011;4237;47.030;15.396;2024-03-02T11:33:15;13.40;;;11.90;;
8399;SDS011;4237;47.030;15.396;2024-03-02T11:35:47;17.47;;;13.13;;
8399;SDS011;4237;47.030;15.396;2024-03-02T11:38:15;15.23;;;12.20;;
8399;SDS011;4237;47.030;15.396;2024-03-02T11:40:46;15.13;;;12.67;;
8399;SDS011;4237;47.030;15.396;2024-03-02T11:43:15;13.53;;;11.83;;
8399;SDS011;4237;47.030;15.396;2024-03-02T11:45:43;13.53;;;11.27;;
8399;SDS011;4237;47.030;15.396;2024-03-02T11:48:17;13.83;;;10.67;;
8399;SDS011;4237;47.030;15.396;2024-03-02T11:50:46;13.80;;;10.20;;
8399;SDS011;4237;47.030;15.396;2024-03-02T11:53:17;11.63;;;9.90;;
8399;SDS011;4237;47.030;15.396;2024-03-02T11:55:47;10.50;;;9.50;;
8399;SDS011;4237;47.030;15.396;2024-03-02T11:58:16;10.90;;;9.80;;
8399;SDS011;4237;47.030;15.396;2024-03-02T12:00:46;13.13;;;9.77;;
8399;SDS011;4237;47.030;15.396;2024-03-02T12:03:17;11.60;;;9.53;;
8399;SDS011;4237;47.030;15.396;2024-03-02T12:05:46;13.00;;;9.33;;
8399;SDS011;4237;47.030;15.396;2024-03-02T12:08:18;13.77;;;10.73;;
8399;SDS011;4237;47.030;15.396;2024-03-02T12:10:57;10.07;;;8.83;;
8399;SDS011;4237;47.030;15.396;2024-03-02T12:13:27;10.37;;;9.20;;
8399;SDS011;4237;47.030;15.396;2024-03-02T12:15:56;11.77;;;9.40;;
8399;SDS011;4237;47.030;15.396;2024-03-02T12:18:25;10.93;;;9.00;;
8399;SDS011;4237;47.030;15.396;2024-03-02T12:20:53;9.30;;;7.80;;
8399;SDS011;4237;47.030;15.396;2024-03-02T12:23:25;10.50;;;9.40;;
8399;SDS011;4237;47.030;15.396;2024-03-02T12:25:53;10.33;;;9.23;;
8399;SDS011;4237;47.030;15.396;2024-03-02T12:28:23;11.40;;;9.63;;
8399;SDS011;4237;47.030;15.396;2024-03-02T12:30:51;12.00;;;9.27;;
8399;SDS011;4237;47.030;15.396;2024-03-02T12:33:20;9.90;;;8.90;;
8399;SDS011;4237;47.030;15.396;2024-03-02T12:35:49;10.60;;;8.67;;
8399;SDS011;4237;47.030;15.396;2024-03-02T12:38:18;9.33;;;8.30;;
8399;SDS011;4237;47.030;15.396;2024-03-02T12:40:47;11.60;;;8.20;;
8399;SDS011;4237;47.030;15.396;2024-03-02T12:43:16;9.80;;;8.73;;
8399;SDS011;4237;47.030;15.396;2024-03-02T12:45:45;10.63;;;8.53;;
8399;SDS011;4237;47.030;15.396;2024-03-02T12:48:14;10.47;;;9.33;;
8399;SDS011;4237;47.030;15.396;2024-03-02T12:50:43;11.27;;;8.90;;
8399;SDS011;4237;47.030;15.396;2024-03-02T12:53:14;10.03;;;8.97;;
8399;SDS011;4237;47.030;15.396;2024-03-02T12:55:43;11.63;;;9.07;;
8399;SDS011;4237;47.030;15.396;2024-03-02T12:58:21;9.60;;;8.57;;
8399;SDS011;4237;47.030;15.396;2024-03-02T13:00:50;12.73;;;9.47;;
8399;SDS011;4237;47.030;15.396;2024-03-02T13:03:20;11.43;;;9.30;;
8399;SDS011;4237;47.030;15.396;2024-03-02T13:05:50;10.40;;;8.83;;
8399;SDS011;4237;47.030;15.396;2024-03-02T13:08:20;10.53;;;8.23;;
8399;SDS011;4237;47.030;15.396;2024-03-02T13:10:49;12.80;;;9.33;;
8399;SDS011;4237;47.030;15.396;2024-03-02T13:13:17;13.90;;;9.47;;
8399;SDS011;4237;47.030;15.396;2024-03-02T13:15:46;11.50;;;8.57;;
8399;SDS011;4237;47.030;15.396;2024-03-02T13:18:17;9.90;;;8.60;;
8399;SDS011;4237;47.030;15.396;2024-03-02T13:20:47;12.70;;;9.00;;
8399;SDS011;4237;47.030;15.396;2024-03-02T13:23:16;10.50;;;8.00;;
8399;SDS011;4237;47.030;15.396;2024-03-02T13:25:45;11.00;;;7.97;;
8399;SDS011;4237;47.030;15.396;2024-03-02T13:28:14;10.63;;;8.80;;
8399;SDS011;4237;47.030;15.396;2024-03-02T13:30:42;10.30;;;8.07;;
8399;SDS011;4237;47.030;15.396;2024-03-02T13:33:11;10.53;;;8.07;;
8399;SDS011;4237;47.030;15.396;2024-03-02T13:35:40;10.93;;;9.40;;
8399;SDS011;4237;47.030;15.396;2024-03-02T13:38:08;10.37;;;8.03;;
8399;SDS011;4237;47.030;15.396;2024-03-02T13:40:37;12.80;;;7.70;;
8399;SDS011;4237;47.030;15.396;2024-03-02T13:43:05;12.10;;;9.10;;
8399;SDS011;4237;47.030;15.396;2024-03-02T13:45:34;12.03;;;8.20;;
8399;SDS011;4237;47.030;15.396;2024-03-02T13:48:03;12.30;;;8.50;;
8399;SDS011;4237;47.030;15.396;2024-03-02T13:50:32;10.60;;;8.63;;
8399;SDS011;4237;47.030;15.396;2024-03-02T13:53:01;10.30;;;7.90;;
8399;SDS011;4237;47.030;15.396;2024-03-02T13:55:30;11.33;;;8.70;;
8399;SDS011;4237;47.030;15.396;2024-03-02T13:57:58;10.90;;;8.60;;
8399;SDS011;4237;47.030;15.396;2024-03-02T14:00:27;9.47;;;7.83;;
8399;SDS011;4237;47.030;15.396;2024-03-02T14:02:56;12.47;;;9.33;;
8399;SDS011;4237;47.030;15.396;2024-03-02T14:05:24;10.80;;;8.50;;
8399;SDS011;4237;47.030;15.396;2024-03-02T14:07:53;12.13;;;8.07;;
8399;SDS011;4237;47.030;15.396;2024-03-02T14:10:22;12.40;;;10.07;;
8399;SDS011;4237;47.030;15.396;2024-03-02T14:12:51;12.33;;;10.37;;
8399;SDS011;4237;47.030;15.396;2024-03-02T14:15:19;12.90;;;9.93;;
8399;SDS011;4237;47.030;15.396;2024-03-02T14:17:48;12.63;;;10.30;;
8399;SDS011;4237;47.030;15.396;2024-03-02T14:20:17;13.17;;;10.60;;
8399;SDS011;4237;47.030;15.396;2024-03-02T14:22:47;14.40;;;10.73;;
8399;SDS011;4237;47.030;15.396;2024-03-02T14:25:17;14.20;;;11.20;;
8399;SDS011;4237;47.030;15.396;2024-03-02T14:27:46;15.37;;;11.20;;
8399;SDS011;4237;47.030;15.396;2024-03-02T14:30:14;14.77;;;10.97;;
8399;SDS011;4237;47.030;15.396;2024-03-02T14:32:43;15.23;;;11.40;;
8399;SDS011;4237;47.030;15.396;2024-03-02T14:35:12;15.60;;;11.23;;
8399;SDS011;4237;47.030;15.396;2024-03-02T14:37:40;13.03;;;11.47;;
8399;SDS011;4237;47.030;15.396;2024-03-02T14:40:10;16.93;;;11.57;;
8399;SDS011;4237;47.030;15.396;2024-03-02T14:42:39;14.20;;;11.43;;
8399;SDS011;4237;47.030;15.396;2024-03-02T14:45:09;13.53;;;10.43;;
8399;SDS011;4237;47.030;15.396;2024-03-02T14:47:37;12.83;;;9.80;;
8399;SDS011;4237;47.030;15.396;2024-03-02T14:50:06;12.37;;;9.40;;
8399;SDS011;4237;47.030;15.396;2024-03-02T14:52:36;13.10;;;10.30;;
8399;SDS011;4237;47.030;15.396;2024-03-02T14:55:05;11.83;;;9.77;;
8399;SDS011;4237;47.030;15.396;2024-03-02T14:57:34;12.53;;;9.23;;